sensor_id;sensor_type;location;lat;lon;timestamp;P1;durP1;ratioP1;P2;durP2;ratioP2
60847;SDS011;46681;47.696;9.140;2022-09-21T00:01:25;6.45;;;1.77;;
60847;SDS011;46681;47.696;9.140;2022-09-21T00:06:30;4.90;;;1.60;;
60847;SDS011;46681;47.696;9.140;2022-09-21T00:09:00;5.15;;;1.67;;
60847;SDS011;46681;47.696;9.140;2022-09-21T00:11:29;6.18;;;1.70;;
60847;SDS011;46681;47.696;9.140;2022-09-21T00:14:04;5.78;;;1.67;;
60847;SDS011;46681;47.696;9.140;2022-09-21T00:16:40;4.32;;;1.60;;
60847;SDS011;46681;47.696;9.140;2022-09-21T00:19:10;6.55;;;1.58;;
60847;SDS011;46681;47.696;9.140;2022-09-21T00:21:36;5.88;;;1.60;;
60847;SDS011;46681;47.696;9.140;2022-09-21T00:24:02;6.60;;;1.80;;
60847;SDS011;46681;47.696;9.140;2022-09-21T00:26:31;4.85;;;1.65;;
60847;SDS011;46681;47.696;9.140;2022-09-21T00:28:57;6.10;;;1.80;;
60847;SDS011;46681;47.696;9.140;2022-09-21T00:31:28;5.78;;;1.52;;
60847;SDS011;46681;47.696;9.140;2022-09-21T00:33:56;5.90;;;1.55;;
60847;SDS011;46681;47.696;9.140;2022-09-21T00:36:25;4.95;;;1.60;;
60847;SDS011;46681;47.696;9.140;2022-09-21T00:38:54;5.72;;;1.67;;
60847;SDS011;46681;47.696;9.140;2022-09-21T00:41:22;4.53;;;1.50;;
60847;SDS011;46681;47.696;9.140;2022-09-21T00:44:33;5.63;;;1.83;;
60847;SDS011;46681;47.696;9.140;2022-09-21T00:46:47;5.95;;;1.70;;
60847;SDS011;46681;47.696;9.140;2022-09-21T00:49:20;5.35;;;1.58;;
60847;SDS011;46681;47.696;9.140;2022-09-21T00:51:48;6.28;;;1.77;;
60847;SDS011;46681;47.696;9.140;2022-09-21T00:54:25;4.95;;;1.60;;
60847;SDS011;46681;47.696;9.140;2022-09-21T00:56:56;3.92;;;1.48;;
60847;SDS011;46681;47.696;9.140;2022-09-21T00:59:24;5.13;;;1.70;;
60847;SDS011;46681;47.696;9.140;2022-09-21T01:01:50;4.63;;;1.60;;
60847;SDS011;46681;47.696;9.140;2022-09-21T01:04:21;5.80;;;1.70;;
60847;SDS011;46681;47.696;9.140;2022-09-21T01:06:47;6.10;;;1.63;;
60847;SDS011;46681;47.696;9.140;2022-09-21T01:09:13;4.53;;;1.50;;
60847;SDS011;46681;47.696;9.140;2022-09-21T01:11:49;4.03;;;1.50;;
60847;SDS011;46681;47.696;9.140;2022-09-21T01:14:44;5.88;;;1.63;;
60847;SDS011;46681;47.696;9.140;2022-09-21T01:17:44;4.80;;;1.65;;
60847;SDS011;46681;47.696;9.140;2022-09-21T01:26:32;7.10;;;1.70;;
60847;SDS011;46681;47.696;9.140;2022-09-21T01:29:34;6.13;;;1.70;;
60847;SDS011;46681;47.696;9.140;2022-09-21T01:35:05;6.60;;;1.70;;
60847;SDS011;46681;47.696;9.140;2022-09-21T01:37:51;5.70;;;1.63;;
60847;SDS011;46681;47.696;9.140;2022-09-21T01:40:22;5.97;;;1.73;;
60847;SDS011;46681;47.696;9.140;2022-09-21T01:42:57;4.85;;;1.60;;
60847;SDS011;46681;47.696;9.140;2022-09-21T01:45:28;6.88;;;1.75;;
60847;SDS011;46681;47.696;9.140;2022-09-21T01:47:58;7.57;;;1.77;;
60847;SDS011;46681;47.696;9.140;2022-09-21T01:50:29;6.40;;;1.70;;
60847;SDS011;46681;47.696;9.140;2022-09-21T01:53:02;6.40;;;1.60;;
60847;SDS011;46681;47.696;9.140;2022-09-21T01:55:33;6.25;;;1.73;;
60847;SDS011;46681;47.696;9.140;2022-09-21T01:58:20;5.32;;;1.55;;
60847;SDS011;46681;47.696;9.140;2022-09-21T02:00:47;7.20;;;1.80;;
60847;SDS011;46681;47.696;9.140;2022-09-21T02:03:24;5.13;;;1.50;;
60847;SDS011;46681;47.696;9.140;2022-09-21T02:06:09;6.25;;;1.73;;
60847;SDS011;46681;47.696;9.140;2022-09-21T02:08:38;6.95;;;1.83;;
60847;SDS011;46681;47.696;9.140;2022-09-21T02:11:04;6.22;;;1.70;;
60847;SDS011;46681;47.696;9.140;2022-09-21T02:13:34;5.95;;;1.60;;
60847;SDS011;46681;47.696;9.140;2022-09-21T02:22:18;5.43;;;1.60;;
60847;SDS011;46681;47.696;9.140;2022-09-21T02:24:56;5.80;;;1.75;;
60847;SDS011;46681;47.696;9.140;2022-09-21T02:27:40;4.45;;;1.58;;
60847;SDS011;46681;47.696;9.140;2022-09-21T02:38:16;5.47;;;1.70;;
60847;SDS011;46681;47.696;9.140;2022-09-21T02:46:56;5.78;;;1.60;;
60847;SDS011;46681;47.696;9.140;2022-09-21T02:49:45;5.35;;;1.70;;
60847;SDS011;46681;47.696;9.140;2022-09-21T02:52:20;4.43;;;1.70;;
60847;SDS011;46681;47.696;9.140;2022-09-21T02:54:49;4.22;;;1.55;;
60847;SDS011;46681;47.696;9.140;2022-09-21T02:57:24;5.03;;;1.58;;
60847;SDS011;46681;47.696;9.140;2022-09-21T02:59:53;4.82;;;1.60;;
60847;SDS011;46681;47.696;9.140;2022-09-21T03:02:21;3.28;;;1.50;;
60847;SDS011;46681;47.696;9.140;2022-09-21T03:04:49;5.18;;;1.63;;
60847;SDS011;46681;47.696;9.140;2022-09-21T03:07:17;4.18;;;1.60;;
60847;SDS011;46681;47.696;9.140;2022-09-21T03:09:45;3.95;;;1.55;;
60847;SDS011;46681;47.696;9.140;2022-09-21T03:12:14;5.85;;;1.67;;
60847;SDS011;46681;47.696;9.140;2022-09-21T03:14:44;6.10;;;1.75;;
60847;SDS011;46681;47.696;9.140;2022-09-21T03:17:12;4.97;;;1.65;;
60847;SDS011;46681;47.696;9.140;2022-09-21T03:19:37;4.70;;;1.48;;
60847;SDS011;46681;47.696;9.140;2022-09-21T03:22:03;6.70;;;1.60;;
60847;SDS011;46681;47.696;9.140;2022-09-21T03:24:28;4.70;;;1.50;;
60847;SDS011;46681;47.696;9.140;2022-09-21T03:26:58;5.65;;;1.60;;
60847;SDS011;46681;47.696;9.140;2022-09-21T03:29:28;4.60;;;1.58;;
60847;SDS011;46681;47.696;9.140;2022-09-21T03:31:57;4.95;;;1.60;;
60847;SDS011;46681;47.696;9.140;2022-09-21T03:34:26;4.75;;;1.60;;
60847;SDS011;46681;47.696;9.140;2022-09-21T03:36:53;5.22;;;1.67;;
60847;SDS011;46681;47.696;9.140;2022-09-21T03:39:21;6.25;;;1.70;;
60847;SDS011;46681;47.696;9.140;2022-09-21T03:41:49;6.13;;;1.70;;
60847;SDS011;46681;47.696;9.140;2022-09-21T03:46:55;6.03;;;1.70;;
60847;SDS011;46681;47.696;9.140;2022-09-21T03:49:24;5.35;;;1.60;;
60847;SDS011;46681;47.696;9.140;2022-09-21T03:51:57;5.38;;;1.50;;
60847;SDS011;46681;47.696;9.140;2022-09-21T03:54:26;6.80;;;1.77;;
60847;SDS011;46681;47.696;9.140;2022-09-21T03:56:51;4.18;;;1.55;;
60847;SDS011;46681;47.696;9.140;2022-09-21T03:59:17;5.85;;;1.70;;
60847;SDS011;46681;47.696;9.140;2022-09-21T04:02:10;5.22;;;1.65;;
60847;SDS011;46681;47.696;9.140;2022-09-21T04:04:44;5.72;;;1.83;;
60847;SDS011;46681;47.696;9.140;2022-09-21T04:07:10;6.10;;;1.77;;
60847;SDS011;46681;47.696;9.140;2022-09-21T04:09:36;8.43;;;1.73;;
60847;SDS011;46681;47.696;9.140;2022-09-21T04:12:04;5.93;;;1.70;;
60847;SDS011;46681;47.696;9.140;2022-09-21T04:14:31;6.38;;;1.52;;
60847;SDS011;46681;47.696;9.140;2022-09-21T04:16:59;5.88;;;1.88;;
60847;SDS011;46681;47.696;9.140;2022-09-21T04:19:31;5.60;;;1.77;;
60847;SDS011;46681;47.696;9.140;2022-09-21T04:21:57;5.18;;;1.67;;
60847;SDS011;46681;47.696;9.140;2022-09-21T04:24:28;5.90;;;1.70;;
60847;SDS011;46681;47.696;9.140;2022-09-21T04:27:01;5.72;;;1.63;;
60847;SDS011;46681;47.696;9.140;2022-09-21T04:29:27;4.63;;;1.60;;
60847;SDS011;46681;47.696;9.140;2022-09-21T04:32:00;4.65;;;1.60;;
60847;SDS011;46681;47.696;9.140;2022-09-21T04:34:32;5.85;;;1.70;;
60847;SDS011;46681;47.696;9.140;2022-09-21T04:37:01;7.15;;;1.80;;
60847;SDS011;46681;47.696;9.140;2022-09-21T04:39:33;6.35;;;1.98;;
60847;SDS011;46681;47.696;9.140;2022-09-21T04:42:02;5.72;;;1.80;;
60847;SDS011;46681;47.696;9.140;2022-09-21T04:44:32;5.75;;;1.90;;
60847;SDS011;46681;47.696;9.140;2022-09-21T04:50:15;6.32;;;1.90;;
60847;SDS011;46681;47.696;9.140;2022-09-21T04:52:49;5.53;;;1.77;;
60847;SDS011;46681;47.696;9.140;2022-09-21T04:55:16;6.03;;;1.60;;
60847;SDS011;46681;47.696;9.140;2022-09-21T04:57:42;4.97;;;1.60;;
60847;SDS011;46681;47.696;9.140;2022-09-21T05:00:09;5.15;;;1.70;;
60847;SDS011;46681;47.696;9.140;2022-09-21T05:02:35;6.53;;;1.80;;
60847;SDS011;46681;47.696;9.140;2022-09-21T05:05:02;7.13;;;1.80;;
60847;SDS011;46681;47.696;9.140;2022-09-21T05:07:28;7.07;;;1.70;;
60847;SDS011;46681;47.696;9.140;2022-09-21T05:09:55;7.22;;;1.98;;
60847;SDS011;46681;47.696;9.140;2022-09-21T05:12:27;5.35;;;1.63;;
60847;SDS011;46681;47.696;9.140;2022-09-21T05:14:59;7.25;;;1.83;;
60847;SDS011;46681;47.696;9.140;2022-09-21T05:17:25;7.35;;;1.80;;
60847;SDS011;46681;47.696;9.140;2022-09-21T05:19:52;7.05;;;1.85;;
60847;SDS011;46681;47.696;9.140;2022-09-21T05:22:21;4.88;;;1.58;;
60847;SDS011;46681;47.696;9.140;2022-09-21T05:24:55;8.18;;;2.10;;
60847;SDS011;46681;47.696;9.140;2022-09-21T05:27:21;5.68;;;1.65;;
60847;SDS011;46681;47.696;9.140;2022-09-21T05:29:54;7.93;;;2.08;;
60847;SDS011;46681;47.696;9.140;2022-09-21T05:33:01;7.53;;;1.92;;
60847;SDS011;46681;47.696;9.140;2022-09-21T05:35:44;6.25;;;1.90;;
60847;SDS011;46681;47.696;9.140;2022-09-21T05:38:30;6.97;;;1.73;;
60847;SDS011;46681;47.696;9.140;2022-09-21T05:40:58;7.00;;;1.73;;
60847;SDS011;46681;47.696;9.140;2022-09-21T05:43:25;5.95;;;1.77;;
60847;SDS011;46681;47.696;9.140;2022-09-21T05:46:07;6.55;;;1.83;;
60847;SDS011;46681;47.696;9.140;2022-09-21T05:57:28;6.25;;;1.67;;
60847;SDS011;46681;47.696;9.140;2022-09-21T06:05:24;7.07;;;2.08;;
60847;SDS011;46681;47.696;9.140;2022-09-21T06:07:50;5.07;;;1.70;;
60847;SDS011;46681;47.696;9.140;2022-09-21T06:10:25;6.70;;;1.95;;
60847;SDS011;46681;47.696;9.140;2022-09-21T06:12:58;6.75;;;1.80;;
60847;SDS011;46681;47.696;9.140;2022-09-21T06:15:27;6.35;;;1.80;;
60847;SDS011;46681;47.696;9.140;2022-09-21T06:18:03;6.88;;;1.88;;
60847;SDS011;46681;47.696;9.140;2022-09-21T06:20:39;9.70;;;2.00;;
60847;SDS011;46681;47.696;9.140;2022-09-21T06:23:09;11.18;;;2.28;;
60847;SDS011;46681;47.696;9.140;2022-09-21T06:25:42;7.72;;;2.10;;
60847;SDS011;46681;47.696;9.140;2022-09-21T06:28:17;6.70;;;1.92;;
60847;SDS011;46681;47.696;9.140;2022-09-21T06:30:59;7.72;;;2.15;;
60847;SDS011;46681;47.696;9.140;2022-09-21T06:33:37;6.90;;;1.90;;
60847;SDS011;46681;47.696;9.140;2022-09-21T06:36:05;7.10;;;1.90;;
60847;SDS011;46681;47.696;9.140;2022-09-21T06:38:35;8.13;;;1.80;;
60847;SDS011;46681;47.696;9.140;2022-09-21T06:41:01;6.93;;;2.05;;
60847;SDS011;46681;47.696;9.140;2022-09-21T06:43:33;6.90;;;1.92;;
60847;SDS011;46681;47.696;9.140;2022-09-21T06:46:01;7.40;;;2.00;;
60847;SDS011;46681;47.696;9.140;2022-09-21T06:48:29;6.35;;;1.95;;
60847;SDS011;46681;47.696;9.140;2022-09-21T06:51:01;6.80;;;1.85;;
60847;SDS011;46681;47.696;9.140;2022-09-21T06:53:32;6.55;;;1.70;;
60847;SDS011;46681;47.696;9.140;2022-09-21T06:56:05;6.70;;;1.90;;
60847;SDS011;46681;47.696;9.140;2022-09-21T06:58:34;7.40;;;1.65;;
60847;SDS011;46681;47.696;9.140;2022-09-21T07:01:10;6.85;;;1.85;;
60847;SDS011;46681;47.696;9.140;2022-09-21T07:03:43;6.68;;;2.00;;
60847;SDS011;46681;47.696;9.140;2022-09-21T07:06:13;8.38;;;1.95;;
60847;SDS011;46681;47.696;9.140;2022-09-21T07:08:46;5.40;;;1.77;;
60847;SDS011;46681;47.696;9.140;2022-09-21T07:11:15;6.45;;;1.80;;
60847;SDS011;46681;47.696;9.140;2022-09-21T07:13:47;6.55;;;1.75;;
60847;SDS011;46681;47.696;9.140;2022-09-21T07:16:22;5.22;;;1.52;;
60847;SDS011;46681;47.696;9.140;2022-09-21T07:18:51;5.70;;;1.63;;
60847;SDS011;46681;47.696;9.140;2022-09-21T07:21:20;5.68;;;1.90;;
60847;SDS011;46681;47.696;9.140;2022-09-21T07:23:47;7.20;;;1.90;;
60847;SDS011;46681;47.696;9.140;2022-09-21T07:26:18;5.03;;;1.70;;
60847;SDS011;46681;47.696;9.140;2022-09-21T07:28:54;6.03;;;1.65;;
60847;SDS011;46681;47.696;9.140;2022-09-21T07:32:32;6.28;;;1.63;;
60847;SDS011;46681;47.696;9.140;2022-09-21T07:35:03;5.82;;;1.63;;
60847;SDS011;46681;47.696;9.140;2022-09-21T07:37:31;6.40;;;1.70;;
60847;SDS011;46681;47.696;9.140;2022-09-21T07:39:58;6.45;;;1.60;;
60847;SDS011;46681;47.696;9.140;2022-09-21T07:42:26;4.57;;;1.58;;
60847;SDS011;46681;47.696;9.140;2022-09-21T07:44:52;7.30;;;1.80;;
60847;SDS011;46681;47.696;9.140;2022-09-21T07:47:23;6.07;;;1.60;;
60847;SDS011;46681;47.696;9.140;2022-09-21T07:49:51;5.28;;;1.67;;
60847;SDS011;46681;47.696;9.140;2022-09-21T07:52:20;6.88;;;1.75;;
60847;SDS011;46681;47.696;9.140;2022-09-21T07:57:48;7.18;;;1.70;;
60847;SDS011;46681;47.696;9.140;2022-09-21T08:00:15;4.78;;;1.50;;
60847;SDS011;46681;47.696;9.140;2022-09-21T08:02:42;5.40;;;1.60;;
60847;SDS011;46681;47.696;9.140;2022-09-21T08:05:10;7.20;;;1.80;;
60847;SDS011;46681;47.696;9.140;2022-09-21T08:07:38;5.82;;;1.60;;
60847;SDS011;46681;47.696;9.140;2022-09-21T08:10:20;8.45;;;1.77;;
60847;SDS011;46681;47.696;9.140;2022-09-21T08:13:01;5.25;;;1.58;;
60847;SDS011;46681;47.696;9.140;2022-09-21T08:15:44;7.57;;;1.70;;
60847;SDS011;46681;47.696;9.140;2022-09-21T08:18:36;5.72;;;1.70;;
60847;SDS011;46681;47.696;9.140;2022-09-21T08:21:08;6.72;;;1.80;;
60847;SDS011;46681;47.696;9.140;2022-09-21T08:23:36;6.82;;;1.73;;
60847;SDS011;46681;47.696;9.140;2022-09-21T08:26:09;6.30;;;1.70;;
60847;SDS011;46681;47.696;9.140;2022-09-21T08:28:44;5.05;;;1.50;;
60847;SDS011;46681;47.696;9.140;2022-09-21T08:31:20;8.07;;;1.70;;
60847;SDS011;46681;47.696;9.140;2022-09-21T08:33:59;6.10;;;1.45;;
60847;SDS011;46681;47.696;9.140;2022-09-21T08:36:38;6.32;;;1.70;;
60847;SDS011;46681;47.696;9.140;2022-09-21T08:39:09;6.75;;;1.50;;
60847;SDS011;46681;47.696;9.140;2022-09-21T08:44:12;6.85;;;1.50;;
60847;SDS011;46681;47.696;9.140;2022-09-21T08:46:45;4.95;;;1.50;;
60847;SDS011;46681;47.696;9.140;2022-09-21T08:49:20;5.75;;;1.48;;
60847;SDS011;46681;47.696;9.140;2022-09-21T08:51:59;7.40;;;1.60;;
60847;SDS011;46681;47.696;9.140;2022-09-21T08:54:43;5.82;;;1.48;;
60847;SDS011;46681;47.696;9.140;2022-09-21T08:57:29;5.43;;;1.30;;
60847;SDS011;46681;47.696;9.140;2022-09-21T09:00:02;5.18;;;1.35;;
60847;SDS011;46681;47.696;9.140;2022-09-21T09:11:21;6.13;;;1.40;;
60847;SDS011;46681;47.696;9.140;2022-09-21T09:19:48;4.53;;;1.20;;
60847;SDS011;46681;47.696;9.140;2022-09-21T09:25:41;7.10;;;1.55;;
60847;SDS011;46681;47.696;9.140;2022-09-21T09:28:19;4.80;;;1.30;;
60847;SDS011;46681;47.696;9.140;2022-09-21T09:33:59;4.53;;;1.20;;
60847;SDS011;46681;47.696;9.140;2022-09-21T09:36:29;7.80;;;1.42;;
60847;SDS011;46681;47.696;9.140;2022-09-21T09:39:00;5.55;;;1.40;;
60847;SDS011;46681;47.696;9.140;2022-09-21T09:53:08;3.67;;;1.10;;
60847;SDS011;46681;47.696;9.140;2022-09-21T09:55:42;4.05;;;1.25;;
60847;SDS011;46681;47.696;9.140;2022-09-21T10:04:15;4.82;;;1.23;;
60847;SDS011;46681;47.696;9.140;2022-09-21T10:06:46;4.35;;;1.20;;
60847;SDS011;46681;47.696;9.140;2022-09-21T10:09:33;3.85;;;1.35;;
60847;SDS011;46681;47.696;9.140;2022-09-21T10:12:00;4.82;;;1.20;;
60847;SDS011;46681;47.696;9.140;2022-09-21T10:14:47;5.63;;;1.30;;
60847;SDS011;46681;47.696;9.140;2022-09-21T10:17:35;4.35;;;1.10;;
60847;SDS011;46681;47.696;9.140;2022-09-21T10:20:12;4.40;;;1.30;;
60847;SDS011;46681;47.696;9.140;2022-09-21T10:22:46;4.95;;;1.20;;
60847;SDS011;46681;47.696;9.140;2022-09-21T10:25:21;4.57;;;1.20;;
60847;SDS011;46681;47.696;9.140;2022-09-21T10:27:49;3.42;;;1.02;;
60847;SDS011;46681;47.696;9.140;2022-09-21T10:33:19;4.43;;;1.10;;
60847;SDS011;46681;47.696;9.140;2022-09-21T10:36:01;4.65;;;1.00;;
60847;SDS011;46681;47.696;9.140;2022-09-21T10:38:51;4.07;;;1.17;;
60847;SDS011;46681;47.696;9.140;2022-09-21T10:41:55;3.55;;;1.00;;
60847;SDS011;46681;47.696;9.140;2022-09-21T10:47:24;3.17;;;0.98;;
60847;SDS011;46681;47.696;9.140;2022-09-21T10:50:27;3.28;;;1.00;;
60847;SDS011;46681;47.696;9.140;2022-09-21T10:56:31;3.35;;;1.08;;
60847;SDS011;46681;47.696;9.140;2022-09-21T10:59:27;2.70;;;0.93;;
60847;SDS011;46681;47.696;9.140;2022-09-21T11:11:35;4.30;;;1.00;;
60847;SDS011;46681;47.696;9.140;2022-09-21T11:26:22;3.22;;;1.00;;
60847;SDS011;46681;47.696;9.140;2022-09-21T11:29:26;3.35;;;1.08;;
60847;SDS011;46681;47.696;9.140;2022-09-21T11:32:21;3.78;;;1.00;;
60847;SDS011;46681;47.696;9.140;2022-09-21T11:40:55;3.38;;;1.05;;
60847;SDS011;46681;47.696;9.140;2022-09-21T11:43:36;4.40;;;1.20;;
60847;SDS011;46681;47.696;9.140;2022-09-21T11:46:30;3.63;;;1.02;;
60847;SDS011;46681;47.696;9.140;2022-09-21T12:00:43;3.35;;;1.00;;
60847;SDS011;46681;47.696;9.140;2022-09-21T12:03:33;3.78;;;0.90;;
60847;SDS011;46681;47.696;9.140;2022-09-21T12:27:00;2.00;;;0.90;;
60847;SDS011;46681;47.696;9.140;2022-09-21T12:35:11;3.50;;;1.00;;
60847;SDS011;46681;47.696;9.140;2022-09-21T12:38:05;2.17;;;0.82;;
60847;SDS011;46681;47.696;9.140;2022-09-21T12:43:54;3.00;;;0.90;;
60847;SDS011;46681;47.696;9.140;2022-09-21T12:46:28;3.70;;;0.88;;
60847;SDS011;46681;47.696;9.140;2022-09-21T12:52:06;5.65;;;1.02;;
60847;SDS011;46681;47.696;9.140;2022-09-21T12:55:05;2.85;;;0.85;;
60847;SDS011;46681;47.696;9.140;2022-09-21T12:58:03;5.60;;;1.30;;
60847;SDS011;46681;47.696;9.140;2022-09-21T13:00:46;2.15;;;0.90;;
60847;SDS011;46681;47.696;9.140;2022-09-21T13:09:00;8.57;;;1.02;;
60847;SDS011;46681;47.696;9.140;2022-09-21T13:14:46;3.28;;;0.95;;
60847;SDS011;46681;47.696;9.140;2022-09-21T13:20:03;3.80;;;0.90;;
60847;SDS011;46681;47.696;9.140;2022-09-21T13:22:50;1.63;;;0.90;;
60847;SDS011;46681;47.696;9.140;2022-09-21T13:25:32;1.85;;;0.80;;
60847;SDS011;46681;47.696;9.140;2022-09-21T13:28:03;5.13;;;1.08;;
60847;SDS011;46681;47.696;9.140;2022-09-21T13:30:34;6.93;;;1.00;;
60847;SDS011;46681;47.696;9.140;2022-09-21T13:44:20;3.95;;;0.90;;
60847;SDS011;46681;47.696;9.140;2022-09-21T13:47:11;5.55;;;1.10;;
60847;SDS011;46681;47.696;9.140;2022-09-21T13:49:54;6.25;;;1.25;;
60847;SDS011;46681;47.696;9.140;2022-09-21T13:52:24;4.07;;;0.98;;
60847;SDS011;46681;47.696;9.140;2022-09-21T14:01:50;4.68;;;1.00;;
60847;SDS011;46681;47.696;9.140;2022-09-21T14:04:29;5.60;;;1.00;;
60847;SDS011;46681;47.696;9.140;2022-09-21T14:07:24;5.78;;;1.08;;
60847;SDS011;46681;47.696;9.140;2022-09-21T14:10:24;7.45;;;1.27;;
60847;SDS011;46681;47.696;9.140;2022-09-21T14:16:51;3.88;;;1.05;;
60847;SDS011;46681;47.696;9.140;2022-09-21T14:28:09;6.63;;;1.15;;
60847;SDS011;46681;47.696;9.140;2022-09-21T14:30:39;3.65;;;1.00;;
60847;SDS011;46681;47.696;9.140;2022-09-21T14:42:14;3.88;;;0.90;;
60847;SDS011;46681;47.696;9.140;2022-09-21T14:45:04;5.82;;;0.90;;
60847;SDS011;46681;47.696;9.140;2022-09-21T14:47:45;2.45;;;0.70;;
60847;SDS011;46681;47.696;9.140;2022-09-21T14:50:30;3.03;;;0.90;;
60847;SDS011;46681;47.696;9.140;2022-09-21T15:05:52;3.78;;;0.85;;
60847;SDS011;46681;47.696;9.140;2022-09-21T15:11:43;2.58;;;0.93;;
60847;SDS011;46681;47.696;9.140;2022-09-21T15:17:26;2.55;;;0.80;;
60847;SDS011;46681;47.696;9.140;2022-09-21T15:24:08;2.97;;;0.75;;
60847;SDS011;46681;47.696;9.140;2022-09-21T15:26:53;2.88;;;0.82;;
60847;SDS011;46681;47.696;9.140;2022-09-21T15:29:49;2.92;;;0.80;;
60847;SDS011;46681;47.696;9.140;2022-09-21T15:32:43;4.70;;;1.00;;
60847;SDS011;46681;47.696;9.140;2022-09-21T15:35:47;2.75;;;0.80;;
60847;SDS011;46681;47.696;9.140;2022-09-21T15:38:26;4.57;;;0.90;;
60847;SDS011;46681;47.696;9.140;2022-09-21T15:44:21;3.35;;;0.90;;
60847;SDS011;46681;47.696;9.140;2022-09-21T15:49:34;3.22;;;0.80;;
60847;SDS011;46681;47.696;9.140;2022-09-21T15:52:20;4.05;;;1.10;;
60847;SDS011;46681;47.696;9.140;2022-09-21T15:55:16;4.28;;;1.00;;
60847;SDS011;46681;47.696;9.140;2022-09-21T15:57:56;2.72;;;0.90;;
60847;SDS011;46681;47.696;9.140;2022-09-21T16:00:38;4.03;;;1.00;;
60847;SDS011;46681;47.696;9.140;2022-09-21T16:18:39;5.05;;;1.10;;
60847;SDS011;46681;47.696;9.140;2022-09-21T16:27:41;3.50;;;0.90;;
60847;SDS011;46681;47.696;9.140;2022-09-21T16:33:56;8.48;;;1.40;;
60847;SDS011;46681;47.696;9.140;2022-09-21T16:36:32;8.52;;;1.10;;
60847;SDS011;46681;47.696;9.140;2022-09-21T16:41:55;2.28;;;0.95;;
60847;SDS011;46681;47.696;9.140;2022-09-21T16:44:40;3.03;;;0.90;;
60847;SDS011;46681;47.696;9.140;2022-09-21T16:47:25;3.70;;;0.90;;
60847;SDS011;46681;47.696;9.140;2022-09-21T16:49:56;3.38;;;0.90;;
60847;SDS011;46681;47.696;9.140;2022-09-21T16:52:48;1.98;;;0.80;;
60847;SDS011;46681;47.696;9.140;2022-09-21T16:55:25;4.45;;;1.30;;
60847;SDS011;46681;47.696;9.140;2022-09-21T16:57:54;4.22;;;0.90;;
60847;SDS011;46681;47.696;9.140;2022-09-21T17:03:42;6.32;;;1.27;;
60847;SDS011;46681;47.696;9.140;2022-09-21T17:09:33;6.72;;;1.45;;
60847;SDS011;46681;47.696;9.140;2022-09-21T17:15:43;7.80;;;1.70;;
60847;SDS011;46681;47.696;9.140;2022-09-21T17:18:20;10.43;;;2.60;;
60847;SDS011;46681;47.696;9.140;2022-09-21T17:20:49;9.45;;;1.90;;
60847;SDS011;46681;47.696;9.140;2022-09-21T17:23:29;10.77;;;1.70;;
60847;SDS011;46681;47.696;9.140;2022-09-21T17:26:14;8.75;;;1.73;;
60847;SDS011;46681;47.696;9.140;2022-09-21T17:28:51;9.05;;;1.98;;
60847;SDS011;46681;47.696;9.140;2022-09-21T17:31:56;6.60;;;1.55;;
60847;SDS011;46681;47.696;9.140;2022-09-21T17:34:43;7.10;;;1.77;;
60847;SDS011;46681;47.696;9.140;2022-09-21T17:37:43;8.18;;;1.83;;
60847;SDS011;46681;47.696;9.140;2022-09-21T17:49:45;6.85;;;1.55;;
60847;SDS011;46681;47.696;9.140;2022-09-21T17:52:27;8.40;;;1.55;;
60847;SDS011;46681;47.696;9.140;2022-09-21T17:58:46;7.47;;;1.55;;
60847;SDS011;46681;47.696;9.140;2022-09-21T18:01:39;6.40;;;1.45;;
60847;SDS011;46681;47.696;9.140;2022-09-21T18:07:09;6.30;;;1.50;;
60847;SDS011;46681;47.696;9.140;2022-09-21T18:09:39;8.50;;;1.58;;
60847;SDS011;46681;47.696;9.140;2022-09-21T18:15:17;5.78;;;1.48;;
60847;SDS011;46681;47.696;9.140;2022-09-21T18:18:18;4.95;;;1.40;;
60847;SDS011;46681;47.696;9.140;2022-09-21T18:27:16;5.65;;;1.40;;
60847;SDS011;46681;47.696;9.140;2022-09-21T18:30:09;4.10;;;1.13;;
60847;SDS011;46681;47.696;9.140;2022-09-21T18:45:09;5.18;;;1.30;;
60847;SDS011;46681;47.696;9.140;2022-09-21T18:48:07;4.30;;;1.20;;
60847;SDS011;46681;47.696;9.140;2022-09-21T18:54:10;3.70;;;1.20;;
60847;SDS011;46681;47.696;9.140;2022-09-21T18:56:57;3.97;;;1.20;;
60847;SDS011;46681;47.696;9.140;2022-09-21T18:59:37;4.57;;;1.23;;
60847;SDS011;46681;47.696;9.140;2022-09-21T19:02:05;4.50;;;1.20;;
60847;SDS011;46681;47.696;9.140;2022-09-21T19:04:47;5.30;;;1.30;;
60847;SDS011;46681;47.696;9.140;2022-09-21T19:10:37;4.22;;;1.27;;
60847;SDS011;46681;47.696;9.140;2022-09-21T19:19:13;4.72;;;1.30;;
60847;SDS011;46681;47.696;9.140;2022-09-21T19:22:03;3.47;;;1.20;;
60847;SDS011;46681;47.696;9.140;2022-09-21T19:24:51;4.07;;;1.20;;
60847;SDS011;46681;47.696;9.140;2022-09-21T19:30:09;3.53;;;1.10;;
60847;SDS011;46681;47.696;9.140;2022-09-21T19:32:55;3.97;;;1.20;;
60847;SDS011;46681;47.696;9.140;2022-09-21T19:35:32;4.85;;;1.20;;
60847;SDS011;46681;47.696;9.140;2022-09-21T19:38:00;4.47;;;1.17;;
60847;SDS011;46681;47.696;9.140;2022-09-21T19:40:39;3.38;;;1.23;;
60847;SDS011;46681;47.696;9.140;2022-09-21T19:46:29;4.20;;;1.20;;
60847;SDS011;46681;47.696;9.140;2022-09-21T19:49:26;4.80;;;1.25;;
60847;SDS011;46681;47.696;9.140;2022-09-21T19:52:14;4.65;;;1.30;;
60847;SDS011;46681;47.696;9.140;2022-09-21T19:54:50;4.20;;;1.20;;
60847;SDS011;46681;47.696;9.140;2022-09-21T19:57:19;3.45;;;1.20;;
60847;SDS011;46681;47.696;9.140;2022-09-21T19:59:46;3.85;;;1.25;;
60847;SDS011;46681;47.696;9.140;2022-09-21T20:02:16;5.15;;;1.30;;
60847;SDS011;46681;47.696;9.140;2022-09-21T20:05:17;4.28;;;1.25;;
60847;SDS011;46681;47.696;9.140;2022-09-21T20:10:47;4.57;;;1.30;;
60847;SDS011;46681;47.696;9.140;2022-09-21T20:15:57;2.25;;;1.10;;
60847;SDS011;46681;47.696;9.140;2022-09-21T20:21:15;3.65;;;1.17;;
60847;SDS011;46681;47.696;9.140;2022-09-21T20:23:41;3.42;;;1.10;;
60847;SDS011;46681;47.696;9.140;2022-09-21T20:26:14;3.67;;;1.13;;
60847;SDS011;46681;47.696;9.140;2022-09-21T20:28:53;3.30;;;1.20;;
60847;SDS011;46681;47.696;9.140;2022-09-21T20:31:22;2.80;;;1.20;;
60847;SDS011;46681;47.696;9.140;2022-09-21T20:33:54;2.72;;;1.13;;
60847;SDS011;46681;47.696;9.140;2022-09-21T20:36:20;5.30;;;1.40;;
60847;SDS011;46681;47.696;9.140;2022-09-21T20:38:49;5.32;;;1.30;;
60847;SDS011;46681;47.696;9.140;2022-09-21T20:41:15;3.83;;;1.20;;
60847;SDS011;46681;47.696;9.140;2022-09-21T20:43:49;3.58;;;1.20;;
60847;SDS011;46681;47.696;9.140;2022-09-21T20:52:17;3.08;;;1.13;;
60847;SDS011;46681;47.696;9.140;2022-09-21T20:54:43;3.67;;;1.20;;
60847;SDS011;46681;47.696;9.140;2022-09-21T20:57:11;3.78;;;1.20;;
60847;SDS011;46681;47.696;9.140;2022-09-21T20:59:36;4.22;;;1.25;;
60847;SDS011;46681;47.696;9.140;2022-09-21T21:02:02;2.72;;;1.10;;
60847;SDS011;46681;47.696;9.140;2022-09-21T21:04:33;2.85;;;1.20;;
60847;SDS011;46681;47.696;9.140;2022-09-21T21:07:03;3.25;;;1.20;;
60847;SDS011;46681;47.696;9.140;2022-09-21T21:09:37;3.38;;;1.20;;
60847;SDS011;46681;47.696;9.140;2022-09-21T21:12:10;3.35;;;1.13;;
60847;SDS011;46681;47.696;9.140;2022-09-21T21:14:38;3.35;;;1.23;;
60847;SDS011;46681;47.696;9.140;2022-09-21T21:17:10;2.85;;;1.10;;
60847;SDS011;46681;47.696;9.140;2022-09-21T21:19:42;5.78;;;1.30;;
60847;SDS011;46681;47.696;9.140;2022-09-21T21:22:10;3.35;;;1.10;;
60847;SDS011;46681;47.696;9.140;2022-09-21T21:24:37;3.13;;;1.10;;
60847;SDS011;46681;47.696;9.140;2022-09-21T21:29:35;5.10;;;1.38;;
60847;SDS011;46681;47.696;9.140;2022-09-21T21:32:10;3.15;;;1.10;;
60847;SDS011;46681;47.696;9.140;2022-09-21T21:34:56;3.38;;;1.23;;
60847;SDS011;46681;47.696;9.140;2022-09-21T21:37:23;3.38;;;1.10;;
60847;SDS011;46681;47.696;9.140;2022-09-21T21:39:52;3.55;;;1.15;;
60847;SDS011;46681;47.696;9.140;2022-09-21T21:42:23;3.85;;;1.20;;
60847;SDS011;46681;47.696;9.140;2022-09-21T21:44:55;4.00;;;1.25;;
60847;SDS011;46681;47.696;9.140;2022-09-21T21:47:24;2.65;;;1.17;;